Time;durP1;ratioP1;P1;durP2;ratioP2;P2;SDS_P1;SDS_P2;PMS_P1;PMS_P2;Temp;Humidity;BMP_temperature;BMP_pressure;BME280_temperature;BME280_humidity;BME280_pressure;Samples;Min_cycle;Max_cycle;Signal;HPM_P1;HPM_P2
2021/01/22 00:00:37;;;;;;;34.83;21.52;;;;;;;6.96;57.13;98755.28;6171481;23;20441;-69
2021/01/22 00:03:04;;;;;;;33.47;18.90;;;;;;;6.99;57.06;98761.13;6171416;23;20406;-71
2021/01/22 00:05:30;;;;;;;33.65;18.88;;;;;;;6.99;57.24;98761.13;6171389;23;20023;-69
2021/01/22 00:07:57;;;;;;;39.10;19.45;;;;;;;7.00;57.05;98760.13;6171947;23;20025;-68
2021/01/22 00:14:20;;;;;;;33.97;17.95;;;;;;;7.01;57.20;98755.75;6172728;23;20028;-67
2021/01/22 00:16:46;;;;;;;32.53;17.45;;;;;;;6.93;57.25;98745.84;6173142;23;20499;-69
2021/01/22 00:19:13;;;;;;;34.13;18.25;;;;;;;6.87;57.27;98746.34;6174301;23;20017;-67
2021/01/22 00:21:39;;;;;;;33.20;18.60;;;;;;;6.87;57.37;98741.09;6171869;23;20469;-68
2021/01/22 00:24:07;;;;;;;36.15;19.20;;;;;;;6.85;57.47;98737.78;6171014;23;20025;-69
2021/01/22 00:26:33;;;;;;;33.35;18.30;;;;;;;6.81;57.41;98737.19;6172358;23;20025;-69
2021/01/22 00:28:59;;;;;;;27.45;16.48;;;;;;;6.79;57.59;98738.25;6172388;23;20104;-69
2021/01/22 00:31:27;;;;;;;32.70;18.88;;;;;;;6.78;57.46;98736.63;6172200;23;20044;-69
2021/01/22 00:33:53;;;;;;;35.75;20.10;;;;;;;6.75;57.43;98732.44;6172671;23;20021;-68
2021/01/22 00:36:19;;;;;;;30.30;18.40;;;;;;;6.76;57.56;98725.41;6171980;23;20044;-69
2021/01/22 00:38:46;;;;;;;32.55;19.80;;;;;;;6.79;57.43;98725.13;6173064;23;20040;-69
2021/01/22 00:41:12;;;;;;;35.75;19.63;;;;;;;6.82;57.35;98730.97;6173569;23;20028;-68
2021/01/22 00:43:38;;;;;;;32.63;18.80;;;;;;;6.89;57.25;98737.38;6173365;23;20021;-68
2021/01/22 00:46:05;;;;;;;32.35;19.80;;;;;;;6.92;57.19;98733.69;6173192;23;20437;-68
2021/01/22 00:48:32;;;;;;;32.35;20.27;;;;;;;6.95;57.07;98722.09;6172808;23;20067;-68
2021/01/22 00:50:58;;;;;;;39.40;19.02;;;;;;;6.95;57.13;98728.22;6173628;23;20079;-69
2021/01/22 00:53:25;;;;;;;33.45;18.33;;;;;;;6.92;57.03;98732.88;6174918;23;20021;-67
2021/01/22 00:55:51;;;;;;;41.13;21.20;;;;;;;6.87;57.25;98731.44;6174159;23;20024;-68
2021/01/22 00:58:17;;;;;;;37.95;21.35;;;;;;;6.79;57.39;98728.63;6174352;23;20017;-69
2021/01/22 01:00:44;;;;;;;34.08;21.52;;;;;;;6.68;57.49;98732.13;6175109;23;20017;-68
2021/01/22 01:03:10;;;;;;;34.33;19.63;;;;;;;6.61;57.62;98728.31;6174123;23;20605;-68
2021/01/22 01:05:38;;;;;;;37.88;20.80;;;;;;;6.50;58.02;98723.94;6173914;23;20021;-67
2021/01/22 01:08:05;;;;;;;30.17;17.30;;;;;;;6.41;58.02;98714.19;6175602;23;20035;-69
2021/01/22 01:10:31;;;;;;;34.63;19.05;;;;;;;6.36;58.22;98710.25;6173591;23;20591;-68
2021/01/22 01:12:58;;;;;;;36.35;21.00;;;;;;;6.30;58.26;98709.78;6174530;23;20492;-69
2021/01/22 01:15:24;;;;;;;33.92;19.60;;;;;;;6.27;58.48;98702.16;6175982;23;20036;-67
2021/01/22 01:17:50;;;;;;;29.48;19.33;;;;;;;6.25;58.43;98698.84;6174641;23;20048;-69
2021/01/22 01:20:17;;;;;;;38.28;19.45;;;;;;;6.23;58.45;98700.75;6174387;23;20024;-68
2021/01/22 01:22:44;;;;;;;39.85;20.52;;;;;;;6.19;58.52;98690.63;6149646;23;20017;-66
2021/01/22 01:25:12;;;;;;;37.45;20.65;;;;;;;6.12;58.53;98690.25;6174920;23;20025;-69
2021/01/22 01:27:38;;;;;;;35.83;19.58;;;;;;;6.05;58.77;98697.78;6174165;23;20441;-68
2021/01/22 01:30:06;;;;;;;31.38;19.30;;;;;;;6.03;58.79;98688.38;6175514;23;20028;-69
2021/01/22 01:32:32;;;;;;;34.97;19.67;;;;;;;5.98;58.95;98683.50;6121540;23;20048;-70
2021/01/22 01:34:59;;;;;;;34.60;19.25;;;;;;;5.94;58.89;98685.50;6174730;23;20021;-69
2021/01/22 01:37:25;;;;;;;39.80;19.15;;;;;;;5.90;58.91;98683.22;6175063;23;20031;-68
2021/01/22 01:39:52;;;;;;;34.60;20.42;;;;;;;5.88;59.07;98680.72;6173521;23;20024;-68
2021/01/22 01:42:19;;;;;;;40.00;19.40;;;;;;;5.85;58.96;98682.75;6173810;23;20017;-69
2021/01/22 01:44:45;;;;;;;34.90;20.10;;;;;;;5.81;59.13;98684.78;6175112;23;20488;-69
2021/01/22 01:47:12;;;;;;;37.40;19.08;;;;;;;5.79;59.15;98676.19;6174515;23;20090;-68
2021/01/22 01:49:38;;;;;;;40.33;18.67;;;;;;;5.78;59.20;98676.31;6174465;23;20100;-69
2021/01/22 01:52:05;;;;;;;31.70;18.35;;;;;;;5.72;59.02;98670.59;6175239;23;20021;-69
2021/01/22 01:54:33;;;;;;;28.30;18.17;;;;;;;5.67;59.39;98666.69;6175084;23;20016;-69
2021/01/22 01:57:01;;;;;;;34.63;19.27;;;;;;;5.63;59.32;98665.25;6175107;23;20025;-69
2021/01/22 01:59:28;;;;;;;33.75;19.00;;;;;;;5.58;59.54;98667.41;6175084;23;20021;-69
2021/01/22 02:01:55;;;;;;;39.17;20.38;;;;;;;5.53;59.45;98665.97;6175101;23;20032;-70
2021/01/22 02:04:22;;;;;;;36.28;21.75;;;;;;;5.52;59.43;98664.28;6176443;23;20028;-69
2021/01/22 02:06:48;;;;;;;38.63;21.98;;;;;;;5.48;59.61;98665.50;6174799;23;20591;-69
2021/01/22 02:09:15;;;;;;;31.33;19.65;;;;;;;5.45;59.36;98657.84;6174885;23;20355;-69
2021/01/22 02:11:42;;;;;;;42.25;21.63;;;;;;;5.38;59.52;98655.84;6175601;23;20017;-69
2021/01/22 02:14:10;;;;;;;39.35;20.05;;;;;;;5.34;59.82;98660.47;6174719;23;20017;-66
2021/01/22 02:16:37;;;;;;;45.72;22.10;;;;;;;5.31;59.83;98653.69;6175532;23;20028;-69
2021/01/22 02:19:09;;;;;;;36.58;20.98;;;;;;;5.36;59.60;98646.31;6176571;23;20025;-67
2021/01/22 02:21:37;;;;;;;40.13;22.13;;;;;;;5.43;59.47;98643.22;6173637;23;20024;-68
2021/01/22 02:24:20;;;;;;;38.53;20.05;;;;;;;5.49;59.41;98646.22;6173748;23;20032;-66
2021/01/22 02:27:10;;;;;;;33.55;21.15;;;;;;;5.53;59.25;98652.88;6176025;23;20017;-68
2021/01/22 02:29:38;;;;;;;39.15;22.05;;;;;;;5.50;59.03;98640.00;6082002;23;20408;-69
2021/01/22 02:32:07;;;;;;;41.92;23.50;;;;;;;5.50;59.19;98634.78;6083007;23;20483;-67
2021/01/22 02:34:37;;;;;;;42.70;22.85;;;;;;;5.50;59.10;98629.53;6081918;23;20019;-69
2021/01/22 02:37:06;;;;;;;35.92;19.52;;;;;;;5.50;59.25;98629.53;6081945;23;20023;-68
2021/01/22 02:39:35;;;;;;;35.88;21.15;;;;;;;5.52;59.01;98621.56;6082765;23;20451;-69
2021/01/22 02:42:04;;;;;;;42.55;21.30;;;;;;;5.51;59.09;98625.97;6082353;23;20050;-68
2021/01/22 02:44:32;;;;;;;41.50;21.17;;;;;;;5.49;59.14;98619.19;6083109;23;20541;-68
2021/01/22 02:47:00;;;;;;;34.35;19.40;;;;;;;5.48;59.26;98607.88;6082770;23;20100;-68
2021/01/22 02:49:26;;;;;;;43.80;22.05;;;;;;;5.50;59.19;98600.72;6083376;23;20027;-68
2021/01/22 02:51:52;;;;;;;37.97;19.95;;;;;;;5.55;59.06;98598.59;6085027;23;20104;-69
2021/01/22 02:54:19;;;;;;;35.60;20.98;;;;;;;5.58;58.82;98581.78;6085293;23;20415;-67
2021/01/22 02:56:52;;;;;;;34.97;19.92;;;;;;;5.62;58.86;98579.75;6084791;23;20563;-67
2021/01/22 02:59:38;;;;;;;38.17;21.48;;;;;;;5.66;58.88;98582.03;6085084;23;20041;-69
2021/01/22 03:02:13;;;;;;;37.50;20.20;;;;;;;5.69;58.57;98580.94;6084829;23;20444;-68
2021/01/22 03:04:41;;;;;;;36.17;21.35;;;;;;;5.66;58.56;98575.97;6084536;23;20093;-68
2021/01/22 03:07:12;;;;;;;34.67;18.85;;;;;;;5.63;58.78;98574.41;6153749;23;20350;-68
2021/01/22 03:09:43;;;;;;;38.63;21.48;;;;;;;5.64;58.75;98567.41;6178021;23;20468;-70
2021/01/22 03:12:10;;;;;;;37.90;18.95;;;;;;;5.65;58.66;98563.81;6175575;23;20017;-67
2021/01/22 03:14:39;;;;;;;33.60;21.42;;;;;;;5.69;58.38;98558.22;6176872;23;20021;-69
2021/01/22 03:17:06;;;;;;;41.25;20.85;;;;;;;5.69;58.28;98554.75;6177246;23;20076;-67
2021/01/22 03:19:41;;;;;;;36.83;21.90;;;;;;;5.72;58.47;98567.63;6175948;23;20027;-66
2021/01/22 03:22:08;;;;;;;40.13;20.98;;;;;;;5.72;58.41;98571.06;6177345;23;20595;-67
2021/01/22 03:24:34;;;;;;;36.42;18.25;;;;;;;5.69;58.26;98571.31;6176815;23;20069;-68
2021/01/22 03:27:00;;;;;;;32.72;18.00;;;;;;;5.68;58.35;98567.03;6175854;23;20055;-68
2021/01/22 03:29:27;;;;;;;30.67;18.42;;;;;;;5.68;58.22;98568.81;6177353;23;20025;-66
2021/01/22 03:31:54;;;;;;;36.25;19.73;;;;;;;5.68;58.28;98585.34;6177033;23;20025;-67
2021/01/22 03:34:26;;;;;;;34.88;19.08;;;;;;;5.69;58.24;98576.56;6175967;23;20017;-68
2021/01/22 03:36:53;;;;;;;32.15;18.15;;;;;;;5.67;58.43;98561.91;6175704;23;20044;-67
2021/01/22 03:39:20;;;;;;;29.55;17.67;;;;;;;5.67;58.58;98551.44;6176520;23;20016;-68
2021/01/22 03:41:46;;;;;;;31.80;18.58;;;;;;;5.67;58.17;98540.94;6176322;23;20025;-66
2021/01/22 03:44:13;;;;;;;28.58;17.30;;;;;;;5.64;58.32;98542.03;6177382;23;20017;-68
2021/01/22 03:46:39;;;;;;;31.60;17.80;;;;;;;5.65;58.36;98537.63;6175871;23;20017;-67
2021/01/22 03:49:06;;;;;;;28.23;16.58;;;;;;;5.67;58.40;98546.19;6177206;23;20091;-67
2021/01/22 03:51:33;;;;;;;28.90;16.60;;;;;;;5.67;58.27;98554.03;6176021;23;20345;-68
2021/01/22 03:53:59;;;;;;;27.83;15.88;;;;;;;5.69;58.28;98547.75;6175215;23;20326;-69
2021/01/22 03:56:25;;;;;;;32.13;17.02;;;;;;;5.74;58.20;98547.38;6176059;23;20077;-67
2021/01/22 03:58:52;;;;;;;30.65;16.85;;;;;;;5.79;58.14;98539.97;6175503;23;20028;-68
2021/01/22 04:01:19;;;;;;;34.38;16.42;;;;;;;5.83;58.12;98540.56;6174704;23;20017;-67
2021/01/22 04:03:45;;;;;;;32.53;16.08;;;;;;;5.86;57.88;98546.38;6176366;23;20021;-67
2021/01/22 04:06:13;;;;;;;28.50;15.25;;;;;;;5.85;57.88;98539.50;6176445;23;20027;-65
2021/01/22 04:08:39;;;;;;;27.75;16.42;;;;;;;5.87;57.87;98536.72;6176107;23;20041;-68
2021/01/22 04:11:06;;;;;;;26.05;15.80;;;;;;;5.87;57.85;98532.34;6176062;23;20021;-68
2021/01/22 04:13:32;;;;;;;31.42;15.57;;;;;;;5.94;57.56;98533.50;6176080;23;20735;-68
2021/01/22 04:15:59;;;;;;;24.92;16.23;;;;;;;5.97;57.57;98527.22;6148433;23;20069;-67
2021/01/22 04:18:25;;;;;;;27.45;15.32;;;;;;;6.03;57.57;98531.97;6176463;23;20036;-69
2021/01/22 04:20:52;;;;;;;30.85;15.18;;;;;;;6.06;57.54;98515.97;6176310;23;20028;-67
2021/01/22 04:23:19;;;;;;;30.55;16.00;;;;;;;6.09;57.39;98514.91;6175697;23;20068;-67
2021/01/22 04:25:46;;;;;;;31.85;18.13;;;;;;;6.11;57.28;98507.75;6175937;23;20437;-67
2021/01/22 04:28:13;;;;;;;27.55;16.05;;;;;;;6.10;57.22;98504.31;6174836;23;20350;-68
2021/01/22 04:30:39;;;;;;;28.27;16.85;;;;;;;6.07;57.39;98498.47;6175223;23;20120;-68
2021/01/22 04:33:06;;;;;;;26.13;15.57;;;;;;;6.01;57.52;98497.16;6175966;23;20025;-68
2021/01/22 04:35:34;;;;;;;26.52;16.63;;;;;;;5.93;57.69;98505.63;6175861;23;20246;-69
2021/01/22 04:38:00;;;;;;;26.75;16.17;;;;;;;5.87;57.43;98507.91;6175789;23;20017;-68
2021/01/22 04:40:27;;;;;;;30.20;15.45;;;;;;;5.82;57.73;98515.34;6176002;23;20089;-67
2021/01/22 04:42:54;;;;;;;27.88;15.95;;;;;;;5.76;57.99;98503.53;6175107;23;20017;-66
2021/01/22 04:45:20;;;;;;;25.58;15.02;;;;;;;5.69;58.00;98502.38;6176346;23;20017;-71
2021/01/22 04:47:47;;;;;;;23.88;14.65;;;;;;;5.66;58.05;98497.41;6175303;23;20598;-67
2021/01/22 04:50:15;;;;;;;27.42;15.57;;;;;;;5.66;58.19;98481.69;6174494;23;20589;-68
2021/01/22 04:52:43;;;;;;;32.78;15.60;;;;;;;5.62;58.25;98483.72;6175602;23;20342;-68
2021/01/22 04:55:13;;;;;;;29.17;14.65;;;;;;;5.60;58.30;98469.06;6176642;23;20017;-69
2021/01/22 04:57:42;;;;;;;28.83;17.23;;;;;;;5.57;58.25;98464.91;6174191;23;20024;-68
2021/01/22 05:00:09;;;;;;;32.00;15.55;;;;;;;5.54;58.38;98463.34;6176444;23;20310;-68
2021/01/22 05:02:36;;;;;;;35.03;17.75;;;;;;;5.54;58.40;98454.69;6175333;23;20611;-67
2021/01/22 05:05:03;;;;;;;33.75;18.40;;;;;;;5.52;58.50;98454.78;6174336;23;20017;-68
2021/01/22 05:07:30;;;;;;;33.15;17.00;;;;;;;5.51;58.50;98455.78;6175403;23;20025;-66
2021/01/22 05:09:57;;;;;;;29.95;16.33;;;;;;;5.54;58.47;98452.06;6174242;23;20021;-67
2021/01/22 05:12:24;;;;;;;29.02;15.90;;;;;;;5.58;58.25;98463.94;6173499;23;20599;-67
2021/01/22 05:14:51;;;;;;;24.45;13.65;;;;;;;5.62;58.39;98456.66;6174961;23;20017;-67
2021/01/22 05:17:18;;;;;;;23.90;12.43;;;;;;;5.65;58.11;98457.25;6174846;23;20450;-69
2021/01/22 05:19:45;;;;;;;22.17;14.13;;;;;;;5.69;58.16;98455.22;6174042;23;20017;-67
2021/01/22 05:22:15;;;;;;;28.48;13.88;;;;;;;5.72;58.21;98457.59;6174778;23;20577;-68
2021/01/22 05:24:42;;;;;;;23.85;14.95;;;;;;;5.71;58.33;98466.44;6173660;23;20028;-69
2021/01/22 05:27:11;;;;;;;21.17;12.00;;;;;;;5.73;58.25;98456.66;6174956;23;20052;-67
2021/01/22 05:29:39;;;;;;;22.67;13.55;;;;;;;5.71;58.39;98461.19;6174972;23;20332;-68
2021/01/22 05:32:25;;;;;;;26.50;13.38;;;;;;;5.71;58.44;98453.31;6175441;23;20032;-68
2021/01/22 05:34:51;;;;;;;23.50;14.20;;;;;;;5.69;58.38;98465.69;6174198;23;20487;-65
2021/01/22 05:37:18;;;;;;;27.00;15.77;;;;;;;5.61;58.62;98452.41;6174254;23;20024;-67
2021/01/22 05:39:44;;;;;;;22.70;13.25;;;;;;;5.53;58.71;98456.47;6173842;23;20028;-66
2021/01/22 05:42:12;;;;;;;23.90;13.05;;;;;;;5.50;58.94;98455.88;6174304;23;20032;-68
2021/01/22 05:44:52;;;;;;;23.25;13.35;;;;;;;5.49;59.14;98460.31;6172951;23;20017;-68
2021/01/22 05:47:19;;;;;;;19.23;11.85;;;;;;;5.45;59.22;98465.88;6173382;23;20593;-70
2021/01/22 05:49:58;;;;;;;25.17;11.90;;;;;;;5.45;59.39;98468.50;6171882;23;20021;-69
2021/01/22 05:52:25;;;;;;;19.67;11.85;;;;;;;5.47;59.38;98463.97;6172839;23;20497;-66
2021/01/22 05:54:52;;;;;;;20.42;12.60;;;;;;;5.46;59.31;98460.53;6170818;23;20025;-70
2021/01/22 05:57:19;;;;;;;19.90;11.00;;;;;;;5.50;59.25;98469.81;6172061;23;20021;-66
2021/01/22 05:59:45;;;;;;;18.15;11.23;;;;;;;5.55;59.24;98465.03;6173134;23;20031;-68
2021/01/22 06:02:28;;;;;;;17.42;10.52;;;;;;;5.66;59.31;98456.31;6171225;23;20350;-69
2021/01/22 06:05:12;;;;;;;18.02;10.00;;;;;;;5.71;59.26;98459.38;6171833;23;20021;-67
2021/01/22 06:07:40;;;;;;;16.10;10.23;;;;;;;5.74;59.15;98453.06;6172692;23;20029;-76
2021/01/22 06:10:22;;;;;;;16.38;8.32;;;;;;;5.78;59.17;98459.72;6172072;23;20032;-72
2021/01/22 06:12:51;;;;;;;22.45;10.48;;;;;;;5.82;59.12;98455.91;6173818;23;20469;-70
2021/01/22 06:15:19;;;;;;;18.85;10.55;;;;;;;5.88;59.16;98465.88;6173146;23;20339;-68
2021/01/22 06:17:50;;;;;;;17.65;10.52;;;;;;;5.96;58.94;98460.06;6171360;23;20021;-70
2021/01/22 06:20:20;;;;;;;15.55;9.73;;;;;;;6.01;59.06;98455.22;6172219;23;20021;-69
2021/01/22 06:22:58;;;;;;;20.20;8.98;;;;;;;6.05;58.86;98461.91;6171096;23;20126;-73
2021/01/22 06:25:27;;;;;;;18.55;9.57;;;;;;;6.12;58.82;98467.44;6172618;23;20598;-68
2021/01/22 06:27:55;;;;;;;16.48;9.95;;;;;;;6.21;58.55;98468.47;6172114;23;20028;-68
2021/01/22 06:30:23;;;;;;;18.40;9.98;;;;;;;6.28;58.67;98467.88;6170362;23;20023;-68
2021/01/22 06:32:50;;;;;;;15.40;8.18;;;;;;;6.34;58.52;98474.38;6170551;23;20021;-69
2021/01/22 06:35:16;;;;;;;16.02;9.43;;;;;;;6.37;58.45;98478.53;6171046;23;20032;-69
2021/01/22 06:37:44;;;;;;;18.45;10.80;;;;;;;6.38;58.44;98470.53;6167757;23;20684;-68
2021/01/22 06:40:12;;;;;;;16.95;9.40;;;;;;;6.40;58.55;98462.56;6169156;23;20059;-66
2021/01/22 06:42:40;;;;;;;19.40;9.18;;;;;;;6.41;58.42;98457.19;6170489;23;20695;-69
2021/01/22 06:45:07;;;;;;;15.40;8.80;;;;;;;6.42;58.42;98452.75;6165563;23;20107;-71
2021/01/22 06:47:34;;;;;;;16.52;9.45;;;;;;;6.44;58.54;98461.31;6167062;23;20025;-70
2021/01/22 06:50:00;;;;;;;15.93;9.48;;;;;;;6.47;58.39;98459.28;6165056;23;20017;-70
2021/01/22 06:52:27;;;;;;;17.52;8.63;;;;;;;6.54;58.22;98451.72;6109360;23;20032;-69
2021/01/22 06:55:07;;;;;;;14.32;9.30;;;;;;;6.64;58.09;98452.59;6164339;23;20017;-68
2021/01/22 06:57:34;;;;;;;15.38;9.02;;;;;;;6.72;57.83;98445.84;6161031;23;20028;-69
2021/01/22 07:00:01;;;;;;;21.90;11.02;;;;;;;6.76;57.70;98445.47;6163760;23;20024;-69
2021/01/22 07:02:38;;;;;;;15.27;10.38;;;;;;;6.86;57.53;98440.25;6164288;23;20048;-71
2021/01/22 07:05:45;;;;;;;14.77;8.68;;;;;;;6.94;57.50;98437.81;6160964;23;20238;-69
2021/01/22 07:08:12;;;;;;;15.48;7.30;;;;;;;7.02;57.17;98439.75;6165200;23;20020;-70
2021/01/22 07:10:58;;;;;;;18.63;9.00;;;;;;;7.06;57.33;98426.25;6165696;23;20085;-69
2021/01/22 07:41:44;;;;;;;21.75;10.35;;;;;;;7.36;57.07;98403.50;5115345;27;1194903;-66
2021/01/22 07:44:10;;;;;;;20.73;10.70;;;;;;;7.59;56.22;98403.25;5116521;27;20043;-67
2021/01/22 07:46:44;;;;;;;21.50;11.32;;;;;;;7.71;56.25;98394.28;5131124;27;20695;-68
2021/01/22 07:49:11;;;;;;;17.83;9.88;;;;;;;7.81;55.83;98384.59;5135692;27;20047;-67
2021/01/22 07:51:37;;;;;;;19.42;10.90;;;;;;;7.89;55.70;98388.31;5135165;27;20043;-67
2021/01/22 07:54:05;;;;;;;16.20;10.07;;;;;;;7.87;55.57;98387.59;5133670;27;20129;-67
2021/01/22 07:56:35;;;;;;;15.75;9.40;;;;;;;7.92;55.52;98380.94;5134624;27;20047;-69
2021/01/22 07:59:03;;;;;;;17.90;9.43;;;;;;;7.93;55.44;98382.63;5134335;27;20118;-70
2021/01/22 08:01:29;;;;;;;20.15;9.05;;;;;;;7.91;55.46;98367.97;5134226;27;20498;-67
2021/01/22 08:03:56;;;;;;;17.40;10.10;;;;;;;7.88;55.60;98361.19;5135331;27;20047;-66
2021/01/22 08:06:22;;;;;;;17.98;9.13;;;;;;;7.88;55.52;98368.25;5133184;27;20043;-69
2021/01/22 08:09:03;;;;;;;18.35;8.98;;;;;;;7.88;55.54;98363.81;5135396;27;20283;-66
2021/01/22 08:11:30;;;;;;;15.23;8.10;;;;;;;7.91;55.39;98357.47;5136509;27;20061;-66
2021/01/22 08:13:56;;;;;;;16.92;7.85;;;;;;;7.85;55.62;98351.78;5134083;27;20047;-67
2021/01/22 08:16:24;;;;;;;11.27;7.28;;;;;;;7.88;55.54;98355.09;5134696;27;20043;-68
2021/01/22 08:18:51;;;;;;;17.83;9.25;;;;;;;7.92;55.43;98353.84;5136017;27;20126;-68
2021/01/22 08:21:19;;;;;;;15.10;8.15;;;;;;;7.97;55.25;98346.38;5133304;27;20724;-68
2021/01/22 08:23:47;;;;;;;16.45;8.38;;;;;;;8.02;55.33;98341.53;5133476;27;20633;-67
2021/01/22 08:26:15;;;;;;;15.02;7.72;;;;;;;8.06;55.00;98348.16;5134034;27;20272;-68
2021/01/22 08:28:43;;;;;;;12.82;6.75;;;;;;;8.18;54.93;98348.81;5132581;27;20043;-67
2021/01/22 08:31:12;;;;;;;11.48;7.57;;;;;;;8.33;54.61;98357.06;5133271;27;20054;-69
2021/01/22 08:46:06;;;;;;;16.25;8.80;;;;;;;9.38;52.07;98338.25;5071607;27;1197472;-68
2021/01/22 08:48:33;;;;;;;13.50;8.25;;;;;;;9.52;51.57;98339.50;5071564;28;20128;-69
2021/01/22 08:50:59;;;;;;;13.30;7.68;;;;;;;9.58;51.40;98319.63;5088117;28;20062;-67
2021/01/22 08:53:26;;;;;;;11.68;6.90;;;;;;;9.67;51.23;98321.34;5091824;28;20048;-69
2021/01/22 08:56:11;;;;;;;14.73;7.47;;;;;;;9.67;51.32;98308.19;5092896;28;20196;-68
2021/01/22 08:59:02;;;;;;;13.05;7.93;;;;;;;9.67;51.47;98318.72;5089919;28;20069;-66
2021/01/22 09:01:48;;;;;;;13.15;7.68;;;;;;;9.79;51.25;98313.19;5093399;28;20050;-68
2021/01/22 09:04:22;;;;;;;14.20;8.38;;;;;;;9.99;50.79;98314.63;5089413;28;20109;-68
2021/01/22 09:06:52;;;;;;;13.57;7.95;;;;;;;10.03;50.80;98313.38;5092360;28;20043;-67
2021/01/22 09:09:36;;;;;;;18.02;8.30;;;;;;;10.10;50.70;98311.75;5092840;28;20044;-67
2021/01/22 09:12:12;;;;;;;16.35;8.52;;;;;;;10.21;50.67;98320.38;5091551;28;20063;-69
2021/01/22 09:15:06;;;;;;;17.85;7.85;;;;;;;10.39;50.11;98321.19;5092060;28;20055;-68
2021/01/22 09:17:41;;;;;;;11.95;6.90;;;;;;;10.57;50.18;98313.19;5084711;28;20047;-69
2021/01/22 09:20:16;;;;;;;13.30;7.45;;;;;;;10.59;49.81;98313.00;5090702;28;20040;-67
2021/01/22 09:22:43;;;;;;;14.43;7.43;;;;;;;10.65;49.98;98305.28;5091443;28;20057;-69
2021/01/22 09:25:12;;;;;;;12.75;8.23;;;;;;;10.66;50.05;98309.59;5090475;28;20135;-67
2021/01/22 09:27:39;;;;;;;12.48;6.85;;;;;;;10.70;50.14;98292.41;5091789;28;20055;-68
2021/01/22 09:30:10;;;;;;;15.05;6.70;;;;;;;10.72;50.04;98300.19;5090485;28;20719;-69
2021/01/22 09:32:37;;;;;;;11.70;7.15;;;;;;;10.70;50.09;98295.06;5089420;28;20563;-69
2021/01/22 09:35:06;;;;;;;12.07;7.45;;;;;;;10.69;50.28;98284.66;5083259;28;20044;-66
2021/01/22 09:37:33;;;;;;;9.48;6.45;;;;;;;10.70;50.30;98267.84;5072439;28;20048;-66
2021/01/22 09:39:59;;;;;;;11.98;7.25;;;;;;;10.71;50.25;98264.19;5067821;28;20060;-68
2021/01/22 09:42:25;;;;;;;13.60;7.88;;;;;;;10.83;50.07;98260.28;5071248;28;20227;-68
2021/01/22 09:44:52;;;;;;;11.25;5.88;;;;;;;10.89;49.75;98262.28;5065717;28;20070;-69
2021/01/22 09:47:18;;;;;;;13.70;6.82;;;;;;;10.83;49.91;98278.75;5054839;28;20664;-67
2021/01/22 09:49:46;;;;;;;13.55;6.90;;;;;;;10.77;50.05;98276.78;5057042;28;20052;-66
2021/01/22 09:52:14;;;;;;;15.68;7.70;;;;;;;10.68;50.17;98272.47;5056624;28;20059;-68
2021/01/22 09:54:40;;;;;;;12.23;6.30;;;;;;;10.65;50.19;98276.22;5054144;28;20059;-67
2021/01/22 09:57:07;;;;;;;15.05;7.10;;;;;;;10.65;50.26;98278.88;5056747;28;20667;-68
2021/01/22 09:59:33;;;;;;;15.15;6.55;;;;;;;10.69;50.25;98276.75;5057153;28;20044;-65
2021/01/22 10:01:59;;;;;;;11.95;6.47;;;;;;;10.78;50.01;98275.78;5055446;28;20716;-67
2021/01/22 10:04:26;;;;;;;9.15;7.32;;;;;;;10.86;49.99;98269.72;5056851;28;20052;-67
2021/01/22 10:06:52;;;;;;;13.18;7.82;;;;;;;10.92;49.72;98268.22;5055673;28;20657;-69
2021/01/22 10:09:19;;;;;;;12.95;8.93;;;;;;;10.97;49.67;98256.19;5056451;28;20048;-69
2021/01/22 10:11:46;;;;;;;12.57;7.13;;;;;;;10.96;49.58;98246.59;5054718;28;20131;-68
2021/01/22 10:14:13;;;;;;;13.55;7.45;;;;;;;10.88;49.80;98257.97;5055845;28;20114;-67
2021/01/22 10:16:39;;;;;;;14.00;8.07;;;;;;;10.81;49.98;98256.16;5055578;28;20059;-69
2021/01/22 10:19:06;;;;;;;10.55;6.80;;;;;;;10.73;50.13;98256.94;5056637;28;20081;-67
2021/01/22 10:21:32;;;;;;;12.02;6.82;;;;;;;10.75;50.15;98240.94;5056485;28;20044;-69
2021/01/22 10:23:59;;;;;;;14.35;8.07;;;;;;;10.77;50.05;98237.16;5056061;28;20558;-70
2021/01/22 10:26:26;;;;;;;12.07;6.45;;;;;;;10.73;50.12;98240.28;5055013;28;20052;-66
2021/01/22 10:28:53;;;;;;;11.88;7.20;;;;;;;10.63;50.34;98240.44;5055562;28;20052;-67
2021/01/22 10:31:20;;;;;;;12.25;7.95;;;;;;;10.50;50.74;98241.72;5057196;28;20044;-68
2021/01/22 10:33:46;;;;;;;14.07;7.30;;;;;;;10.40;50.92;98232.28;5056244;28;20053;-70
2021/01/22 10:36:13;;;;;;;11.05;6.03;;;;;;;10.37;51.13;98233.44;5052879;28;20072;-68
2021/01/22 10:38:40;;;;;;;13.10;7.93;;;;;;;10.48;51.03;98238.41;5055094;28;20052;-68
2021/01/22 10:41:07;;;;;;;12.05;8.32;;;;;;;10.72;50.70;98244.75;5055408;28;20055;-68
2021/01/22 10:43:35;;;;;;;13.90;7.47;;;;;;;10.85;50.43;98244.28;5052232;28;20056;-67
2021/01/22 10:46:02;;;;;;;14.27;8.07;;;;;;;11.04;50.32;98245.78;5054240;28;20226;-68
2021/01/22 10:48:29;;;;;;;15.75;7.95;;;;;;;11.17;50.17;98234.75;5054534;28;20055;-67
2021/01/22 10:50:55;;;;;;;13.93;7.75;;;;;;;11.30;50.07;98232.41;5052003;28;20044;-66
2021/01/22 10:53:23;;;;;;;17.75;9.63;;;;;;;11.37;49.93;98235.22;5056417;28;20556;-66
2021/01/22 10:55:49;;;;;;;18.10;9.43;;;;;;;11.57;49.55;98236.53;5055965;28;20484;-67
2021/01/22 10:58:16;;;;;;;20.13;10.25;;;;;;;11.66;49.33;98229.41;5053431;28;20044;-67
2021/01/22 11:00:43;;;;;;;17.20;9.27;;;;;;;11.67;49.46;98225.78;5054655;28;20083;-67
2021/01/22 11:03:10;;;;;;;16.73;9.30;;;;;;;11.76;49.34;98218.66;5058112;28;20537;-68
2021/01/22 11:05:36;;;;;;;16.95;8.82;;;;;;;11.81;49.36;98217.16;5052064;28;20531;-68
2021/01/22 11:08:03;;;;;;;13.32;7.40;;;;;;;11.92;49.02;98209.88;5056150;28;20044;-68
2021/01/22 11:10:30;;;;;;;16.85;8.55;;;;;;;12.09;48.68;98208.00;5056696;28;20036;-70
2021/01/22 11:12:56;;;;;;;14.93;9.20;;;;;;;12.27;48.50;98203.31;5052828;28;20124;-68
2021/01/22 11:15:23;;;;;;;14.02;8.05;;;;;;;12.51;47.90;98204.97;5057050;28;20056;-70
2021/01/22 11:17:50;;;;;;;17.50;9.60;;;;;;;12.64;47.50;98204.44;5053913;28;20049;-68
2021/01/22 11:20:18;;;;;;;15.70;9.45;;;;;;;12.50;47.92;98202.53;5053584;28;20055;-69
2021/01/22 11:22:46;;;;;;;14.93;9.82;;;;;;;12.32;48.04;98198.31;5056561;28;20051;-68
2021/01/22 11:25:13;;;;;;;15.73;9.23;;;;;;;12.29;48.19;98197.84;5056203;28;20500;-68
2021/01/22 11:27:40;;;;;;;21.20;10.23;;;;;;;12.22;48.21;98200.34;5053421;28;20635;-69
2021/01/22 11:30:09;;;;;;;16.30;9.63;;;;;;;12.12;48.44;98197.91;5054814;28;20048;-68
2021/01/22 11:32:35;;;;;;;18.13;10.43;;;;;;;12.04;48.41;98201.38;5055185;28;20045;-67
2021/01/22 11:35:04;;;;;;;18.25;9.95;;;;;;;12.20;48.27;98192.56;5052864;28;20084;-67
2021/01/22 11:37:30;;;;;;;18.52;10.38;;;;;;;12.15;48.26;98194.09;5055749;28;20055;-69
2021/01/22 11:39:57;;;;;;;16.27;10.93;;;;;;;12.01;48.78;98195.63;5054296;28;20725;-67
2021/01/22 11:42:24;;;;;;;16.85;10.55;;;;;;;11.92;48.93;98194.00;5034489;28;20041;-69
2021/01/22 11:44:50;;;;;;;16.05;9.63;;;;;;;11.77;49.06;98193.84;5055304;28;20544;-67
2021/01/22 11:47:17;;;;;;;19.80;10.35;;;;;;;11.74;48.99;98196.81;5053227;28;20166;-66
2021/01/22 11:49:43;;;;;;;15.50;9.43;;;;;;;11.70;49.29;98192.88;5053385;28;20052;-68
2021/01/22 11:52:11;;;;;;;19.08;10.88;;;;;;;11.69;49.31;98188.59;5034449;28;20045;-68
2021/01/22 11:54:38;;;;;;;18.20;9.93;;;;;;;11.64;49.19;98200.50;5052298;28;20053;-68
2021/01/22 11:57:06;;;;;;;23.17;12.32;;;;;;;11.59;49.64;98197.53;5054275;28;20051;-68
2021/01/22 11:59:34;;;;;;;18.45;11.65;;;;;;;11.74;49.52;98194.19;5055515;28;20834;-68
2021/01/22 12:02:00;;;;;;;19.67;11.68;;;;;;;11.88;49.23;98190.84;5053032;28;20117;-68
2021/01/22 12:04:27;;;;;;;19.95;10.80;;;;;;;11.80;49.11;98199.63;5055878;28;20044;-69
2021/01/22 12:06:55;;;;;;;22.70;11.32;;;;;;;11.73;49.33;98190.72;5056458;28;20114;-68
2021/01/22 12:09:22;;;;;;;19.73;12.45;;;;;;;11.67;49.71;98188.75;5053381;28;20052;-69
2021/01/22 12:11:49;;;;;;;17.60;10.45;;;;;;;11.62;49.73;98191.91;5054952;28;20058;-66
2021/01/22 12:14:15;;;;;;;18.27;10.80;;;;;;;11.50;50.20;98177.38;5056683;28;20132;-66
2021/01/22 12:16:42;;;;;;;15.05;9.30;;;;;;;11.41;50.24;98188.97;5054230;28;20104;-68